createdAt,value
2018-05-26T00:01:13.176Z,97.30
2018-05-26T00:03:40.861Z,97.80
2018-05-26T00:06:08.626Z,97.80
2018-05-26T00:08:36.399Z,97.90
2018-05-26T00:11:04.112Z,97.60
2018-05-26T00:13:31.819Z,97.10
2018-05-26T00:15:59.612Z,97.10
2018-05-26T00:18:27.582Z,97.00
2018-05-26T00:20:56.373Z,97.00
2018-05-26T00:23:25.919Z,96.70
2018-05-26T00:25:55.323Z,96.70
2018-05-26T00:28:23.977Z,96.60
2018-05-26T00:30:52.643Z,96.40
2018-05-26T00:33:23.724Z,96.20
2018-05-26T00:35:52.445Z,96.50
2018-05-26T00:38:22.639Z,96.50
2018-05-26T00:40:52.135Z,96.80
2018-05-26T00:43:23.062Z,96.80
2018-05-26T00:45:52.578Z,96.90
2018-05-26T00:48:21.294Z,96.30
2018-05-26T00:50:49.024Z,96.80
2018-05-26T00:53:16.736Z,96.00
2018-05-26T00:55:44.390Z,96.30
2018-05-26T00:58:12.138Z,96.30
2018-05-26T01:00:40.627Z,96.80
2018-05-26T01:03:08.307Z,96.80
2018-05-26T01:05:36.770Z,96.90
2018-05-26T01:08:04.482Z,96.80
2018-05-26T01:10:32.210Z,96.90
2018-05-26T01:12:59.935Z,96.70
2018-05-26T01:15:27.571Z,96.70
2018-05-26T01:17:55.248Z,96.70
2018-05-26T01:20:22.975Z,96.70
2018-05-26T01:22:50.684Z,96.50
2018-05-26T01:25:18.348Z,96.50
2018-05-26T01:27:46.125Z,97.00
2018-05-26T01:30:13.809Z,96.60
2018-05-26T01:32:41.653Z,97.20
2018-05-26T01:35:09.307Z,97.20
2018-05-26T01:37:37.215Z,96.80
2018-05-26T01:40:04.967Z,96.70
2018-05-26T01:42:32.751Z,96.50
2018-05-26T01:45:00.477Z,96.40
2018-05-26T01:47:28.314Z,97.00
2018-05-26T01:49:55.996Z,97.50
2018-05-26T01:52:23.671Z,97.20
2018-05-26T01:54:51.402Z,97.30
2018-05-26T01:57:19.256Z,97.20
2018-05-26T01:59:46.984Z,97.70
2018-05-26T02:02:14.645Z,96.40
2018-05-26T02:04:44.092Z,97.90
2018-05-26T02:07:13.401Z,95.90
2018-05-26T02:09:41.057Z,97.60
2018-05-26T02:12:09.191Z,97.90
2018-05-26T02:14:38.006Z,97.90
2018-05-26T02:17:05.895Z,97.30
2018-05-26T02:19:33.608Z,97.60
2018-05-26T02:22:01.331Z,97.60
2018-05-26T02:24:31.772Z,97.70
2018-05-26T02:26:59.841Z,97.70
2018-05-26T02:29:28.566Z,97.30
2018-05-26T02:31:57.369Z,97.30
2018-05-26T02:34:25.287Z,97.10
2018-05-26T02:36:53.566Z,97.40
2018-05-26T02:39:22.059Z,97.80
2018-05-26T02:41:49.810Z,97.40
2018-05-26T02:44:17.559Z,97.80
2018-05-26T02:46:45.276Z,97.70
2018-05-26T02:49:12.941Z,97.60
2018-05-26T02:51:40.669Z,97.30
2018-05-26T02:54:08.355Z,97.10
2018-05-26T02:56:36.105Z,97.30
2018-05-26T02:59:03.821Z,97.10
2018-05-26T03:01:31.661Z,97.00
2018-05-26T03:03:58.836Z,97.30
2018-05-26T03:06:32.090Z,97.50
2018-05-26T03:09:05.479Z,97.10
2018-05-26T03:11:38.956Z,97.00
2018-05-26T03:14:12.167Z,97.00
2018-05-26T03:16:40.891Z,97.00
2018-05-26T03:19:08.591Z,97.00
2018-05-26T03:21:36.302Z,97.00
2018-05-26T03:24:04.116Z,97.20
2018-05-26T03:26:31.860Z,97.40
2018-05-26T03:28:59.515Z,96.70
2018-05-26T03:31:27.235Z,97.10
2018-05-26T03:33:54.925Z,96.90
2018-05-26T03:36:23.476Z,96.90
2018-05-26T03:38:51.179Z,96.90
2018-05-26T03:41:19.687Z,97.00
2018-05-26T03:43:47.388Z,97.00
2018-05-26T03:46:15.146Z,97.10
2018-05-26T03:48:43.103Z,96.80
2018-05-26T03:51:10.882Z,96.70
2018-05-26T03:53:38.571Z,96.50
2018-05-26T03:56:18.185Z,96.60
2018-05-26T03:58:57.578Z,96.80
2018-05-26T04:01:25.272Z,97.20
2018-05-26T04:03:53.781Z,97.00
2018-05-26T04:06:21.517Z,96.70
2018-05-26T04:08:49.216Z,95.50
2018-05-26T04:11:16.949Z,97.10
2018-05-26T04:13:44.667Z,97.10
2018-05-26T04:16:12.384Z,97.20
2018-05-26T04:18:40.202Z,97.10
2018-05-26T04:21:07.886Z,97.20
2018-05-26T04:23:36.447Z,96.90
2018-05-26T04:26:04.181Z,96.90
2018-05-26T04:28:31.909Z,97.00
2018-05-26T04:31:00.383Z,97.10
2018-05-26T04:33:28.079Z,97.10
2018-05-26T04:35:55.767Z,96.80
2018-05-26T04:38:23.539Z,97.10
2018-05-26T04:40:51.278Z,97.00
2018-05-26T04:43:18.955Z,97.00
2018-05-26T04:45:46.877Z,97.10
2018-05-26T04:48:15.271Z,97.20
2018-05-26T04:50:42.946Z,97.00
2018-05-26T04:53:10.619Z,96.90
2018-05-26T04:55:38.266Z,97.20
2018-05-26T04:58:06.004Z,96.90
2018-05-26T05:00:33.862Z,97.00
2018-05-26T05:03:02.328Z,97.00
2018-05-26T05:05:29.982Z,97.00
2018-05-26T05:07:57.691Z,96.80
2018-05-26T05:10:25.404Z,97.00
2018-05-26T05:12:53.120Z,97.10
2018-05-26T05:15:20.803Z,97.20
2018-05-26T05:17:48.580Z,97.30
2018-05-26T05:20:16.323Z,97.20
2018-05-26T05:22:44.206Z,97.10
2018-05-26T05:25:12.048Z,97.10
2018-05-26T05:27:39.744Z,97.10
2018-05-26T05:30:07.422Z,96.60
2018-05-26T05:32:35.165Z,97.10
2018-05-26T05:35:02.923Z,95.90
2018-05-26T05:37:30.645Z,96.80
2018-05-26T05:39:58.368Z,96.70
2018-05-26T05:42:26.084Z,96.80
2018-05-26T05:44:53.838Z,96.80
2018-05-26T05:47:21.478Z,96.70
2018-05-26T05:49:49.328Z,96.90
2018-05-26T05:52:17.086Z,96.90
2018-05-26T05:54:44.875Z,96.20
2018-05-26T05:57:12.562Z,95.30
2018-05-26T05:59:40.218Z,96.40
2018-05-26T06:02:09.065Z,94.60
2018-05-26T06:04:37.695Z,95.80
2018-05-26T06:07:05.882Z,94.30
2018-05-26T06:09:33.660Z,95.90
2018-05-26T06:12:01.438Z,95.70
2018-05-26T06:14:29.173Z,95.70
2018-05-26T06:16:56.928Z,95.70
2018-05-26T06:19:24.701Z,95.30
2018-05-26T06:21:52.459Z,95.10
2018-05-26T06:24:20.158Z,95.10
2018-05-26T06:26:47.836Z,94.90
2018-05-26T06:29:15.547Z,95.50
2018-05-26T06:31:43.240Z,94.70
2018-05-26T06:34:10.945Z,95.30
2018-05-26T06:36:38.945Z,94.80
2018-05-26T06:39:06.732Z,94.90
2018-05-26T06:41:34.483Z,94.40
2018-05-26T06:44:02.179Z,94.20
2018-05-26T06:46:29.898Z,93.90
2018-05-26T06:48:57.589Z,93.70
2018-05-26T06:51:25.370Z,93.90
2018-05-26T06:53:53.066Z,94.00
2018-05-26T06:56:21.273Z,94.00
2018-05-26T06:58:49.053Z,92.90
2018-05-26T07:01:17.053Z,91.90
2018-05-26T07:03:44.792Z,91.70
2018-05-26T07:06:13.568Z,90.80
2018-05-26T07:08:41.373Z,91.80
2018-05-26T07:11:09.259Z,91.90
2018-05-26T07:13:37.839Z,91.70
2018-05-26T07:16:06.929Z,91.60
2018-05-26T07:18:34.714Z,92.20
2018-05-26T07:21:02.402Z,91.10
2018-05-26T07:23:30.114Z,91.30
2018-05-26T07:25:57.800Z,90.50
2018-05-26T07:28:26.262Z,83.80
2018-05-26T07:30:54.082Z,83.50
2018-05-26T07:33:21.893Z,89.60
2018-05-26T07:35:49.661Z,90.10
2018-05-26T07:38:17.426Z,88.00
2018-05-26T07:40:45.186Z,89.50
2018-05-26T07:43:13.023Z,87.80
2018-05-26T07:45:40.736Z,87.00
2018-05-26T07:48:08.389Z,87.80
2018-05-26T07:50:36.858Z,87.60
2018-05-26T07:53:04.695Z,83.80
2018-05-26T07:55:32.407Z,84.40
2018-05-26T07:58:00.139Z,85.20
2018-05-26T08:00:27.907Z,82.90
2018-05-26T08:02:55.604Z,83.30
2018-05-26T08:05:23.345Z,76.30
2018-05-26T08:07:51.819Z,82.30
2018-05-26T08:10:20.210Z,82.30
2018-05-26T08:12:47.886Z,83.50
2018-05-26T08:15:15.624Z,78.10
2018-05-26T08:17:44.105Z,80.40
2018-05-26T08:20:11.779Z,80.40
2018-05-26T08:22:39.484Z,79.20
2018-05-26T08:25:07.287Z,78.40
2018-05-26T08:27:35.039Z,78.40
2018-05-26T08:30:02.809Z,71.30
2018-05-26T08:32:30.569Z,75.50
2018-05-26T08:34:58.244Z,78.20
2018-05-26T08:37:26.213Z,79.60
2018-05-26T08:39:53.978Z,79.40
2018-05-26T08:42:21.778Z,76.90
2018-05-26T08:44:49.603Z,78.20
2018-05-26T08:47:17.435Z,73.90
2018-05-26T08:49:45.213Z,73.40
2018-05-26T08:52:12.988Z,70.10
2018-05-26T08:54:40.782Z,74.40
2018-05-26T08:57:08.751Z,68.90
2018-05-26T08:59:36.688Z,67.60
2018-05-26T09:02:04.849Z,66.70
2018-05-26T09:04:32.619Z,71.40
2018-05-26T09:07:00.473Z,70.70
2018-05-26T09:09:29.656Z,68.70
2018-05-26T09:11:57.351Z,68.60
2018-05-26T09:14:26.126Z,66.30
2018-05-26T09:16:53.964Z,73.10
2018-05-26T09:19:22.577Z,71.70
2018-05-26T09:21:50.283Z,70.90
2018-05-26T09:24:18.096Z,72.90
2018-05-26T09:26:45.831Z,70.40
2018-05-26T09:29:14.257Z,72.90
2018-05-26T09:31:42.073Z,70.70
2018-05-26T09:34:10.523Z,75.00
2018-05-26T09:36:38.300Z,75.00
2018-05-26T09:39:06.045Z,72.50
2018-05-26T09:41:33.991Z,70.90
2018-05-26T09:44:01.712Z,68.80
2018-05-26T09:46:29.417Z,69.50
2018-05-26T09:48:58.523Z,68.00
2018-05-26T09:51:26.295Z,68.60
2018-05-26T09:56:29.628Z,70.40
2018-05-26T09:58:57.871Z,70.80
2018-05-26T10:01:26.420Z,69.50
2018-05-26T10:03:54.160Z,65.50
2018-05-26T10:06:23.079Z,69.40
2018-05-26T10:08:55.607Z,68.70
2018-05-26T10:11:24.156Z,69.70
2018-05-26T10:13:52.046Z,66.60
2018-05-26T10:16:19.860Z,66.60
2018-05-26T10:18:47.765Z,66.70
2018-05-26T10:21:15.501Z,65.90
2018-05-26T10:23:43.386Z,68.40
2018-05-26T10:26:11.263Z,65.80
2018-05-26T10:28:39.143Z,67.40
2018-05-26T10:31:06.859Z,67.40
2018-05-26T10:33:35.507Z,67.00
2018-05-26T10:36:04.091Z,62.90
2018-05-26T10:38:31.914Z,62.00
2018-05-26T10:40:59.759Z,62.20
2018-05-26T10:43:28.356Z,58.40
2018-05-26T10:46:07.856Z,58.40
2018-05-26T10:48:35.724Z,58.30
2018-05-26T10:51:03.492Z,57.30
2018-05-26T10:53:31.985Z,58.00
2018-05-26T10:55:59.809Z,57.50
2018-05-26T10:58:27.692Z,59.60
2018-05-26T11:00:55.505Z,62.20
2018-05-26T11:03:23.188Z,61.30
2018-05-26T11:05:50.886Z,62.50
2018-05-26T11:08:18.601Z,62.20
2018-05-26T11:10:46.334Z,63.30
2018-05-26T11:13:13.994Z,64.60
2018-05-26T11:15:42.455Z,65.20
2018-05-26T11:18:11.168Z,65.30
2018-05-26T11:20:38.957Z,65.70
2018-05-26T11:23:06.868Z,66.30
2018-05-26T11:25:34.767Z,68.90
2018-05-26T11:28:03.470Z,67.70
2018-05-26T11:30:41.996Z,64.20
2018-05-26T11:33:12.069Z,66.60
2018-05-26T11:35:40.103Z,60.80
2018-05-26T11:39:18.777Z,55.30
2018-05-26T11:41:46.792Z,46.60
2018-05-26T11:44:14.541Z,46.60
2018-05-26T11:46:42.361Z,46.10
2018-05-26T11:49:10.123Z,47.00
2018-05-26T11:51:37.903Z,48.80
2018-05-26T11:54:05.136Z,38.80
2018-05-26T11:56:32.347Z,35.70
2018-05-26T11:58:59.537Z,34.60
2018-05-26T12:01:26.828Z,36.70
2018-05-26T12:03:54.032Z,39.60
2018-05-26T12:06:21.218Z,40.40
2018-05-26T12:08:48.488Z,42.70
2018-05-26T12:11:16.482Z,43.90
2018-05-26T12:13:43.728Z,43.70
2018-05-26T12:30:33.326Z,41.20
2018-05-26T12:36:11.948Z,41.50
2018-05-26T12:38:41.408Z,42.90
2018-05-26T12:41:11.367Z,43.40
2018-05-26T12:43:39.317Z,43.30
2018-05-26T12:46:08.166Z,43.20
2018-05-26T12:48:36.052Z,43.20
2018-05-26T12:51:04.071Z,44.40
2018-05-26T12:53:32.122Z,42.60
2018-05-26T12:56:03.345Z,42.60
2018-05-26T12:58:31.654Z,43.00
2018-05-26T13:01:00.904Z,43.90
2018-05-26T13:03:28.727Z,42.60
2018-05-26T13:05:56.639Z,43.90
2018-05-26T13:08:25.245Z,42.50
2018-05-26T13:10:54.167Z,44.50
2018-05-26T13:13:22.301Z,45.80
2018-05-26T13:15:50.126Z,47.10
2018-05-26T13:18:20.288Z,44.30
2018-05-26T13:20:54.215Z,43.60
2018-05-26T13:23:27.571Z,44.90
2018-05-26T13:26:05.107Z,41.50
2018-05-26T13:31:10.496Z,42.30
2018-05-26T13:33:50.730Z,42.80
2018-05-26T14:33:10.648Z,44.40
2018-05-26T14:41:39.842Z,44.60
2018-05-26T15:14:07.413Z,44.40
2018-05-26T17:03:53.021Z,46.50
2018-05-26T17:06:32.460Z,47.00
2018-05-26T17:09:32.307Z,45.70
2018-05-26T17:46:59.921Z,48.10
2018-05-26T18:17:45.256Z,49.40
2018-05-26T18:20:35.525Z,49.60
2018-05-26T18:29:14.934Z,51.90
2018-05-26T18:31:49.336Z,51.50
2018-05-26T18:34:42.196Z,51.70
2018-05-26T18:47:48.354Z,52.80
2018-05-26T19:17:15.330Z,54.50
2018-05-26T19:20:16.166Z,54.00
2018-05-26T19:23:33.251Z,54.40
2018-05-26T19:28:42.732Z,54.30
2018-05-26T19:31:13.575Z,54.50
2018-05-26T19:33:43.312Z,54.50
2018-05-26T19:36:12.104Z,55.70
2018-05-26T19:38:41.227Z,55.70
2018-05-26T19:41:09.344Z,55.90
2018-05-26T19:43:37.275Z,55.80
2018-05-26T19:46:10.346Z,56.80
2018-05-26T19:48:38.607Z,56.70
2018-05-26T19:51:10.436Z,57.20
2018-05-26T19:53:39.396Z,57.60
2018-05-26T19:56:20.486Z,58.10
2018-05-26T19:58:50.324Z,58.40
2018-05-26T20:01:19.009Z,58.80
2018-05-26T20:03:48.460Z,59.30
2018-05-26T20:06:16.756Z,59.40
2018-05-26T20:08:45.211Z,59.30
2018-05-26T20:11:24.356Z,59.70
2018-05-26T20:19:24.117Z,61.30
2018-05-26T20:25:50.754Z,62.40
2018-05-26T21:24:53.192Z,70.60
2018-05-26T21:27:20.986Z,66.50
2018-05-26T21:30:01.628Z,65.80
2018-05-26T21:32:33.694Z,68.00
2018-05-26T21:35:21.998Z,68.00
2018-05-26T23:01:28.046Z,86.00
2018-05-26T23:06:35.511Z,85.40
2018-05-26T23:09:03.467Z,84.70
2018-05-26T23:11:31.431Z,84.60
2018-05-26T23:13:59.270Z,84.70
2018-05-26T23:16:27.100Z,85.20
2018-05-26T23:18:54.968Z,85.70
2018-05-26T23:21:22.763Z,86.10
2018-05-26T23:23:51.484Z,86.60
2018-05-26T23:26:20.885Z,86.60
2018-05-26T23:28:49.178Z,86.80
2018-05-26T23:31:17.099Z,87.40
2018-05-26T23:33:44.861Z,87.90
2018-05-26T23:36:12.653Z,88.40
2018-05-26T23:38:40.647Z,88.00
2018-05-26T23:41:08.434Z,88.60
2018-05-26T23:43:36.508Z,88.70
2018-05-26T23:46:04.284Z,89.30
2018-05-26T23:48:31.961Z,89.40
2018-05-26T23:50:59.696Z,89.50
2018-05-26T23:53:27.453Z,89.90
2018-05-26T23:55:55.167Z,89.60
2018-05-26T23:58:22.838Z,90.00
